Ames, IA

12:46 PM CDT on August 30, 2014 (GMT -0500)
Perry Municipal | Change Station
CLOSE
Current Station
Airport
Location: Perry,
Elevation: 1014 ft
Nearby Weather Stations

Elev 1014 ft 41.83 °N, 94.16 °W | Updated 11 minutes ago

Overcast
Overcast
72 °F
Feels Like 72 °F
N
8
Wind Variable Wind from WNW

Today
High -- | Low -- °F
--% Chance of Precip.
Yesterday
High -- | Low -- °F
Precip. -- in
6:38 AM 7:51 PM
Waxing Crescent, 23% visible
Pressure 29.92 in
Visibility 10.0 miles
Clouds Overcast 1300 ft
Dew Point 67 °F
Humidity 83%
Rainfall 0.17 in
Snow Depth Not available.
UV 3 out of 12
Pollen 8.20 out of 12
Air Quality Not available.
Flu Activity Not available.
METAR KPRO 301735Z AUTO 29007KT 10SM OVC013 23/20 A2992 RMK AO2 T02250195

More Conditions Fewer Conditions

Pressure 29.92 in
Visibility 10.0 miles
Clouds Overcast 1300 ft
Dew Point 67 °F
Humidity 83%
Rainfall 0.17 in
Snow Depth Not available.
UV 3 out of 12
Pollen 8.20 out of 12
Air Quality Not available.
Flu Activity Not available.
METAR KPRO 301735Z AUTO 29007KT 10SM OVC013 23/20 A2992 RMK AO2 T02250195

More Conditions Fewer Conditions

10-Day Weather Forecast

Almanac

Astronomy

Aug. 30, 2014 Rise Set
Actual Time 6:38 AM CDT 7:51 PM CDT
Civil Twilight 6:09 AM CDT 8:20 PM CDT
Nautical Twilight 5:34 AM CDT 8:54 PM CDT
Astronomical Twilight 4:58 AM CDT 9:30 PM CDT
Moon 11:31 AM CDT 10:20 PM CDT
Length of Visible Light 14h 11m
Length of Day
13h 13m
Tomorrow will be 2m 41s shorter.
Waxing Crescent, 23% of the Moon is Illuminated
Today
Waxing Crescent
Sep 2
First Quarter
Sep 8
Full
Sep 15
Last Quarter
Sep 24
New

Today's Extremes

State Highs State Lows

Community

WunderPhotos

Upload Photos

1,748,581 photos uploaded!

WunderBlogs® & News

Nearby

Snow Depth

Station Depth Elevation
No new snow has been reported.

Earthquake Activity

City Distance Mag. Time & Date
No recent earthquake activity has been reported nearby.
Minimum magnitude displayed is 2.5.

Coastal Water Temperatures

Place Temperature
No Stations Reporting

Nearby Weather Stations